Time;durP1;ratioP1;P1;durP2;ratioP2;P2;SDS_P1;SDS_P2;PMS_P1;PMS_P2;Temp;Humidity;BMP_temperature;BMP_pressure;BME280_temperature;BME280_humidity;BME280_pressure;Samples;Min_cycle;Max_cycle;Signal;HPM_P1;HPM_P2
2023/09/27 00:00:11;;;;;;;2.25;1.08;;;22.50;55.50;;;;;;6240757;23;20170;-84
2023/09/27 00:02:40;;;;;;;1.02;0.65;;;22.50;55.50;;;;;;6241168;23;20167;-86
2023/09/27 00:05:11;;;;;;;0.43;0.43;;;22.40;55.30;;;;;;6240626;23;20194;-83
2023/09/27 00:07:41;;;;;;;0.68;0.57;;;22.40;55.30;;;;;;6241813;23;20157;-87
2023/09/27 00:10:11;;;;;;;2.22;1.50;;;22.40;55.20;;;;;;6242931;23;20166;-83
2023/09/27 00:12:40;;;;;;;0.43;0.35;;;22.40;55.20;;;;;;6240645;23;20163;-83
2023/09/27 00:15:11;;;;;;;1.98;1.10;;;22.40;55.20;;;;;;6242751;23;20213;-84
2023/09/27 00:17:41;;;;;;;3.30;0.63;;;22.30;55.10;;;;;;6243254;23;20151;-83
2023/09/27 00:20:13;;;;;;;1.17;0.50;;;22.30;55.20;;;;;;6240854;23;20173;-82
2023/09/27 00:22:42;;;;;;;8.85;1.48;;;22.30;55.30;;;;;;6241603;23;20158;-83
2023/09/27 00:25:11;;;;;;;7.45;1.00;;;22.30;55.30;;;;;;6241225;23;20195;-84
2023/09/27 00:27:39;;;;;;;0.77;0.77;;;22.30;55.50;;;;;;6243006;23;20166;-85
2023/09/27 00:30:13;;;;;;;3.10;0.75;;;22.30;55.60;;;;;;6241729;23;20162;-84
2023/09/27 00:32:41;;;;;;;1.95;0.80;;;22.30;55.80;;;;;;6240825;23;20189;-83
2023/09/27 00:35:18;;;;;;;0.30;0.30;;;22.20;55.70;;;;;;6242263;23;20659;-84
2023/09/27 00:37:48;;;;;;;0.70;0.70;;;22.20;55.80;;;;;;6242521;23;20166;-84
2023/09/27 00:40:18;;;;;;;2.58;1.98;;;22.20;55.90;;;;;;6242575;23;20228;-85
2023/09/27 00:42:48;;;;;;;0.57;0.57;;;22.20;56.00;;;;;;6243444;23;20158;-83
2023/09/27 00:45:18;;;;;;;2.05;1.67;;;22.10;56.00;;;;;;6239878;23;20193;-85
2023/09/27 00:47:48;;;;;;;2.10;1.00;;;22.20;56.00;;;;;;6242345;23;20542;-84
2023/09/27 00:50:19;;;;;;;0.40;0.38;;;22.10;56.10;;;;;;6244012;23;20182;-82
2023/09/27 00:52:48;;;;;;;0.40;0.40;;;22.10;56.10;;;;;;6241509;23;20260;-84
2023/09/27 00:55:20;;;;;;;2.05;1.13;;;22.20;56.10;;;;;;6241182;23;20249;-83
2023/09/27 00:57:51;;;;;;;3.00;1.20;;;22.10;56.10;;;;;;6242301;23;20173;-84
2023/09/27 01:00:21;;;;;;;2.05;0.80;;;22.10;56.10;;;;;;6242934;23;20174;-84
2023/09/27 01:02:52;;;;;;;0.30;0.30;;;22.10;56.00;;;;;;6241809;23;21041;-83
2023/09/27 01:05:22;;;;;;;0.65;0.65;;;22.10;55.80;;;;;;6241071;23;20281;-83
2023/09/27 01:07:51;;;;;;;4.60;1.55;;;22.10;55.70;;;;;;6240484;23;20165;-85
2023/09/27 01:10:20;;;;;;;0.98;0.93;;;22.10;55.60;;;;;;6243798;23;20154;-83
2023/09/27 01:12:48;;;;;;;1.52;1.23;;;22.10;55.50;;;;;;6242368;23;20182;-84
2023/09/27 01:15:17;;;;;;;0.35;0.35;;;22.10;55.30;;;;;;6241280;23;20167;-84
2023/09/27 01:17:56;;;;;;;0.68;0.68;;;22.10;55.30;;;;;;6240610;23;20192;-83
2023/09/27 01:20:28;;;;;;;0.90;0.80;;;22.00;55.00;;;;;;6243344;23;20162;-83
2023/09/27 01:22:59;;;;;;;2.20;0.80;;;22.10;55.10;;;;;;6240912;23;20165;-83
2023/09/27 01:25:30;;;;;;;0.85;0.80;;;22.00;55.00;;;;;;6242502;23;20190;-83
2023/09/27 01:27:59;;;;;;;7.32;0.90;;;22.10;55.00;;;;;;6238861;23;20173;-86
2023/09/27 01:30:32;;;;;;;0.50;0.40;;;22.10;55.00;;;;;;6241996;23;20167;-83
2023/09/27 01:33:05;;;;;;;0.60;0.60;;;22.00;54.80;;;;;;6242820;23;20801;-86
2023/09/27 01:35:34;;;;;;;1.83;1.70;;;22.00;54.80;;;;;;6242836;23;20222;-84
2023/09/27 01:38:05;;;;;;;1.85;1.65;;;22.00;54.80;;;;;;6241428;23;20726;-85
2023/09/27 01:40:36;;;;;;;0.77;0.77;;;22.00;54.80;;;;;;6242344;23;20173;-83
2023/09/27 01:43:05;;;;;;;3.22;1.95;;;22.00;54.80;;;;;;6241340;23;20189;-83
2023/09/27 01:45:34;;;;;;;1.48;1.17;;;22.00;54.90;;;;;;6241119;23;20197;-82
2023/09/27 01:48:05;;;;;;;5.68;0.77;;;22.00;54.90;;;;;;6242915;23;20159;-85
2023/09/27 01:50:35;;;;;;;1.20;1.05;;;21.90;54.90;;;;;;6241353;23;20167;-84
2023/09/27 01:53:06;;;;;;;2.33;0.70;;;21.90;54.90;;;;;;6241692;23;20642;-84
2023/09/27 01:55:36;;;;;;;1.45;0.80;;;21.90;54.80;;;;;;6239814;23;20178;-83
2023/09/27 01:58:05;;;;;;;3.13;1.23;;;22.00;54.90;;;;;;6241374;23;20185;-85
2023/09/27 02:00:33;;;;;;;1.85;1.27;;;21.90;54.90;;;;;;6239644;23;20214;-85
2023/09/27 02:03:03;;;;;;;1.35;0.93;;;21.90;54.90;;;;;;6240579;23;20174;-85
2023/09/27 02:05:32;;;;;;;0.75;0.75;;;22.00;54.90;;;;;;6240951;23;20194;-83
2023/09/27 02:08:01;;;;;;;1.33;1.08;;;21.90;54.90;;;;;;6242119;23;20245;-84
2023/09/27 02:10:31;;;;;;;0.30;0.30;;;22.00;54.90;;;;;;6240398;23;20626;-83
2023/09/27 02:12:59;;;;;;;1.00;0.90;;;22.00;54.90;;;;;;6242798;23;20170;-83
2023/09/27 02:15:28;;;;;;;0.80;0.75;;;22.00;54.90;;;;;;6230381;23;20505;-84
2023/09/27 02:17:56;;;;;;;0.88;0.80;;;22.00;54.90;;;;;;6241912;23;20167;-86
2023/09/27 02:20:25;;;;;;;0.32;0.32;;;22.00;54.90;;;;;;6241350;23;20217;-84
2023/09/27 02:22:55;;;;;;;1.33;0.65;;;22.00;54.90;;;;;;6242056;23;20170;-85
2023/09/27 02:25:25;;;;;;;0.68;0.60;;;21.90;54.90;;;;;;6241793;23;20195;-83
2023/09/27 02:27:55;;;;;;;0.30;0.30;;;21.90;54.90;;;;;;6239981;23;20540;-83
2023/09/27 02:30:23;;;;;;;1.00;0.43;;;22.00;55.00;;;;;;6242072;23;20220;-83
2023/09/27 02:32:52;;;;;;;0.82;0.82;;;22.00;55.00;;;;;;6241418;23;20224;-86
2023/09/27 02:35:21;;;;;;;2.35;1.40;;;22.00;55.00;;;;;;6242711;23;20637;-85
2023/09/27 02:37:50;;;;;;;0.50;0.50;;;22.00;55.00;;;;;;6242354;23;20171;-86
2023/09/27 02:40:19;;;;;;;0.40;0.40;;;22.00;55.00;;;;;;6244205;23;20202;-83
2023/09/27 02:42:48;;;;;;;0.70;0.68;;;22.00;55.10;;;;;;6241326;23;20170;-83
2023/09/27 02:45:18;;;;;;;1.63;0.70;;;22.00;55.10;;;;;;6242955;23;20666;-83
2023/09/27 02:47:47;;;;;;;0.50;0.50;;;22.00;55.10;;;;;;6244735;23;20155;-84
2023/09/27 02:50:16;;;;;;;0.30;0.30;;;22.00;55.10;;;;;;6244060;23;20257;-84
2023/09/27 02:52:45;;;;;;;0.57;0.35;;;22.00;55.20;;;;;;6242879;23;20630;-84
2023/09/27 02:55:14;;;;;;;1.02;0.88;;;22.00;55.40;;;;;;6243393;23;20228;-85
2023/09/27 02:57:48;;;;;;;0.40;0.40;;;21.90;55.30;;;;;;6241785;23;20794;-84
2023/09/27 03:00:19;;;;;;;0.35;0.35;;;22.00;55.30;;;;;;6243946;23;20626;-83
2023/09/27 03:02:48;;;;;;;0.50;0.50;;;22.00;55.20;;;;;;6242820;23;20241;-83
2023/09/27 03:05:18;;;;;;;0.40;0.40;;;22.00;55.30;;;;;;6216370;23;20190;-85
2023/09/27 03:07:48;;;;;;;0.60;0.60;;;21.90;56.00;;;;;;6243478;23;20175;-85
2023/09/27 03:10:18;;;;;;;0.73;0.60;;;21.90;55.50;;;;;;6245308;23;20194;-85
2023/09/27 03:12:49;;;;;;;0.60;0.60;;;21.90;55.50;;;;;;6216314;23;20222;-85
2023/09/27 03:15:20;;;;;;;1.08;0.98;;;21.90;55.50;;;;;;6242891;23;20213;-82
2023/09/27 03:17:49;;;;;;;1.10;1.00;;;21.90;55.60;;;;;;6242493;23;20620;-84
2023/09/27 03:20:19;;;;;;;0.50;0.50;;;21.80;55.70;;;;;;6217616;23;20228;-84
2023/09/27 03:22:48;;;;;;;0.35;0.35;;;21.80;55.70;;;;;;6242257;23;20477;-84
2023/09/27 03:25:18;;;;;;;0.30;0.30;;;21.80;55.70;;;;;;6216840;23;20194;-84
2023/09/27 03:27:47;;;;;;;1.00;0.80;;;21.80;55.80;;;;;;6217421;23;20209;-82
2023/09/27 03:30:20;;;;;;;1.60;1.10;;;21.80;55.80;;;;;;6242072;23;20170;-83
2023/09/27 03:32:48;;;;;;;1.58;0.50;;;21.80;56.00;;;;;;6214916;23;20163;-83
2023/09/27 03:35:17;;;;;;;1.70;0.90;;;21.80;56.00;;;;;;6242777;23;20193;-85
2023/09/27 03:37:47;;;;;;;0.30;0.30;;;21.80;56.00;;;;;;6241047;23;20624;-84
2023/09/27 03:40:15;;;;;;;0.65;0.65;;;21.80;56.00;;;;;;6244126;23;20220;-85
2023/09/27 03:42:45;;;;;;;1.35;1.23;;;21.80;56.00;;;;;;6242601;23;20760;-84
2023/09/27 03:45:15;;;;;;;1.40;1.05;;;21.80;56.00;;;;;;6242333;23;20221;-86
2023/09/27 03:47:48;;;;;;;0.90;0.68;;;21.80;56.10;;;;;;6242841;23;20185;-86
2023/09/27 03:50:17;;;;;;;0.90;0.82;;;21.80;56.00;;;;;;6245258;23;20155;-84
2023/09/27 03:52:46;;;;;;;1.40;0.88;;;21.80;56.00;;;;;;6243500;23;20245;-86
2023/09/27 03:55:14;;;;;;;0.63;0.50;;;21.80;56.00;;;;;;6242993;23;20171;-84
2023/09/27 03:57:43;;;;;;;1.23;0.70;;;21.80;56.00;;;;;;6240319;23;20166;-84
2023/09/27 04:00:14;;;;;;;0.40;0.40;;;21.80;56.00;;;;;;6241220;23;20177;-82
2023/09/27 04:02:43;;;;;;;0.88;0.65;;;21.80;56.00;;;;;;6241362;23;20163;-85
2023/09/27 04:05:14;;;;;;;0.55;0.55;;;21.70;56.00;;;;;;6243319;23;20170;-84
2023/09/27 04:07:43;;;;;;;0.75;0.52;;;21.80;56.00;;;;;;6242013;23;20159;-84
2023/09/27 04:10:12;;;;;;;0.88;0.60;;;21.70;56.00;;;;;;6244889;23;20170;-85
2023/09/27 04:12:40;;;;;;;1.45;1.20;;;21.70;56.10;;;;;;6242961;23;20167;-82
2023/09/27 04:15:09;;;;;;;1.30;0.88;;;21.70;56.20;;;;;;6243945;23;20178;-82
2023/09/27 04:17:39;;;;;;;0.47;0.47;;;21.70;56.10;;;;;;6241499;23;20643;-83
2023/09/27 04:33:36;;;;;;;0.68;0.65;;;21.80;56.00;;;;;;6220210;23;20213;-87
2023/09/27 04:36:06;;;;;;;0.93;0.50;;;21.80;56.00;;;;;;6242770;23;20164;-84
2023/09/27 04:38:35;;;;;;;0.63;0.63;;;21.80;56.00;;;;;;6243860;23;20170;-84
2023/09/27 04:41:04;;;;;;;0.73;0.47;;;21.80;55.90;;;;;;6242009;23;20491;-84
2023/09/27 04:43:33;;;;;;;0.68;0.68;;;21.80;55.90;;;;;;6244408;23;20166;-84
2023/09/27 04:46:01;;;;;;;0.45;0.45;;;21.80;55.90;;;;;;6240653;23;20241;-84
2023/09/27 04:48:32;;;;;;;0.82;0.82;;;21.90;55.90;;;;;;6242623;23;20193;-81
2023/09/27 04:51:03;;;;;;;7.70;0.95;;;21.90;55.90;;;;;;6241872;23;20177;-83
2023/09/27 04:53:34;;;;;;;0.93;0.70;;;21.90;55.80;;;;;;6243914;23;20241;-86
2023/09/27 04:56:05;;;;;;;2.13;1.92;;;21.90;55.80;;;;;;6241303;23;20489;-81
2023/09/27 04:58:33;;;;;;;0.70;0.70;;;21.90;55.80;;;;;;6242718;23;20485;-83
2023/09/27 05:01:07;;;;;;;1.35;0.32;;;21.90;55.80;;;;;;6241825;23;20225;-83
2023/09/27 05:03:35;;;;;;;1.20;0.75;;;22.00;55.70;;;;;;6240894;23;20509;-82
2023/09/27 05:06:06;;;;;;;0.68;0.47;;;22.10;55.70;;;;;;6240660;23;20190;-83
2023/09/27 05:08:34;;;;;;;0.57;0.57;;;22.10;55.80;;;;;;6242107;23;20197;-84
2023/09/27 05:11:03;;;;;;;1.70;0.70;;;22.10;55.70;;;;;;6241411;23;20178;-84
2023/09/27 05:13:31;;;;;;;0.65;0.60;;;22.10;55.60;;;;;;6244169;23;20174;-82
2023/09/27 05:16:00;;;;;;;1.33;0.98;;;22.20;55.70;;;;;;6240297;23;20178;-82
2023/09/27 05:18:29;;;;;;;0.40;0.40;;;22.20;55.60;;;;;;6242630;23;20228;-83
2023/09/27 05:21:00;;;;;;;0.60;0.60;;;22.20;55.50;;;;;;6242371;23;20175;-83
2023/09/27 05:23:30;;;;;;;2.88;0.93;;;22.30;55.60;;;;;;6243219;23;20224;-83
2023/09/27 05:25:58;;;;;;;0.80;0.70;;;22.30;55.50;;;;;;6241223;23;20174;-87
2023/09/27 05:28:27;;;;;;;0.65;0.65;;;22.40;55.60;;;;;;6238788;23;20914;-82
2023/09/27 05:30:56;;;;;;;0.63;0.52;;;22.40;55.50;;;;;;6240508;23;20610;-82
2023/09/27 05:33:25;;;;;;;0.47;0.40;;;22.40;55.40;;;;;;6243178;23;20162;-80
2023/09/27 05:35:54;;;;;;;0.50;0.45;;;22.50;55.40;;;;;;6240646;23;20167;-81
2023/09/27 05:38:23;;;;;;;9.00;1.08;;;22.50;55.50;;;;;;6241674;23;20181;-82
2023/09/27 05:40:53;;;;;;;0.95;0.77;;;22.50;55.10;;;;;;6241182;23;20173;-85
2023/09/27 05:43:22;;;;;;;0.95;0.93;;;22.60;55.00;;;;;;6243896;23;20643;-85
2023/09/27 05:45:50;;;;;;;0.82;0.57;;;22.60;54.80;;;;;;6236729;23;20171;-82
2023/09/27 05:48:19;;;;;;;0.95;0.95;;;22.70;54.80;;;;;;6243289;23;20198;-84
2023/09/27 05:50:48;;;;;;;0.70;0.70;;;22.70;54.60;;;;;;6239955;23;20646;-85
2023/09/27 05:53:17;;;;;;;2.40;1.17;;;22.70;54.20;;;;;;6243378;23;20170;-85
2023/09/27 05:55:47;;;;;;;0.50;0.50;;;22.80;54.10;;;;;;6244308;23;20264;-81
2023/09/27 05:58:18;;;;;;;1.55;0.88;;;22.80;54.00;;;;;;6244075;23;20510;-81
2023/09/27 06:00:48;;;;;;;0.93;0.93;;;22.90;54.20;;;;;;6242922;23;20238;-81
2023/09/27 06:03:16;;;;;;;0.93;0.80;;;22.90;53.90;;;;;;6243558;23;20616;-81
2023/09/27 06:05:45;;;;;;;2.15;1.33;;;23.00;54.10;;;;;;6243895;23;20180;-82
2023/09/27 06:08:13;;;;;;;1.55;0.75;;;23.10;54.20;;;;;;6245973;23;20202;-83
2023/09/27 06:10:42;;;;;;;0.57;0.57;;;23.10;54.30;;;;;;6257436;23;20170;-83
2023/09/27 06:13:10;;;;;;;1.50;1.02;;;23.20;54.30;;;;;;6266610;23;20170;-82
2023/09/27 06:15:40;;;;;;;0.28;0.20;;;23.30;54.30;;;;;;6266203;23;20179;-81
2023/09/27 06:18:09;;;;;;;0.93;0.82;;;23.40;54.40;;;;;;6265986;23;20163;-83
2023/09/27 06:20:38;;;;;;;0.50;0.50;;;23.40;54.10;;;;;;6267106;23;20178;-84
2023/09/27 06:23:09;;;;;;;0.85;0.80;;;23.50;54.00;;;;;;6253892;23;20167;-83
2023/09/27 06:25:39;;;;;;;0.38;0.38;;;23.50;54.00;;;;;;6247581;23;20671;-83
2023/09/27 06:28:08;;;;;;;0.77;0.77;;;23.60;54.00;;;;;;6246686;23;20519;-84
2023/09/27 06:30:37;;;;;;;1.20;0.52;;;23.60;53.80;;;;;;6248552;23;20173;-83
2023/09/27 06:33:08;;;;;;;8.98;1.58;;;23.70;53.80;;;;;;6248139;23;20170;-84
2023/09/27 06:35:38;;;;;;;1.00;0.65;;;23.70;53.70;;;;;;6245231;23;20159;-84
2023/09/27 06:38:07;;;;;;;2.80;1.63;;;23.80;53.90;;;;;;6246712;23;20174;-83
2023/09/27 06:40:36;;;;;;;0.73;0.73;;;23.80;53.80;;;;;;6246578;23;20193;-84
2023/09/27 06:43:05;;;;;;;1.15;0.95;;;23.90;53.60;;;;;;6244706;23;20177;-84
2023/09/27 06:45:36;;;;;;;1.35;0.93;;;23.90;53.50;;;;;;6245559;23;20178;-84
2023/09/27 06:48:09;;;;;;;0.90;0.80;;;24.00;53.50;;;;;;6246348;23;20186;-84
2023/09/27 06:50:42;;;;;;;1.35;0.52;;;24.00;53.50;;;;;;6245813;23;20166;-82
2023/09/27 06:53:10;;;;;;;1.23;0.60;;;24.10;53.50;;;;;;6244804;23;20155;-83
2023/09/27 06:55:52;;;;;;;0.40;0.40;;;24.20;53.70;;;;;;6244063;23;20541;-84
2023/09/27 06:58:24;;;;;;;2.15;0.52;;;24.30;53.80;;;;;;6245290;23;20161;-85
2023/09/27 07:00:54;;;;;;;2.47;0.98;;;24.30;53.90;;;;;;6214496;23;20241;-85
2023/09/27 07:03:27;;;;;;;0.40;0.35;;;24.30;53.40;;;;;;6244985;23;20220;-86
2023/09/27 07:05:57;;;;;;;2.60;1.63;;;24.40;53.00;;;;;;6243642;23;20165;-83
2023/09/27 07:08:26;;;;;;;3.70;1.90;;;24.40;53.10;;;;;;6246056;23;20509;-84
2023/09/27 07:10:54;;;;;;;0.65;0.65;;;24.50;53.10;;;;;;6243051;23;20205;-83
2023/09/27 07:13:23;;;;;;;1.80;1.13;;;24.50;53.00;;;;;;6243069;23;20174;-84
2023/09/27 07:15:51;;;;;;;1.90;0.85;;;24.60;53.00;;;;;;6242961;23;20198;-87
2023/09/27 07:18:22;;;;;;;1.95;1.25;;;24.70;53.10;;;;;;6244808;23;20505;-88
2023/09/27 07:20:54;;;;;;;1.27;0.70;;;24.80;53.10;;;;;;6244006;23;20193;-82
2023/09/27 07:23:23;;;;;;;2.15;0.82;;;24.80;52.70;;;;;;6244269;23;20173;-88
2023/09/27 07:25:52;;;;;;;0.80;0.73;;;24.90;52.60;;;;;;6243044;23;20225;-82
2023/09/27 07:28:21;;;;;;;0.75;0.50;;;24.90;52.80;;;;;;6241492;23;20272;-82
2023/09/27 07:30:49;;;;;;;0.60;0.50;;;25.00;52.90;;;;;;6242912;23;20166;-85
2023/09/27 07:33:18;;;;;;;0.82;0.68;;;25.00;52.50;;;;;;6245061;23;20166;-84
2023/09/27 07:35:52;;;;;;;1.02;0.70;;;25.20;52.10;;;;;;6243508;23;20189;-83
2023/09/27 07:38:22;;;;;;;0.73;0.70;;;25.20;52.30;;;;;;6244691;23;20158;-82
2023/09/27 07:40:50;;;;;;;0.70;0.60;;;25.30;52.40;;;;;;6242613;23;20170;-85
2023/09/27 07:43:19;;;;;;;1.92;1.20;;;25.40;52.10;;;;;;6245456;23;20207;-84
2023/09/27 07:45:48;;;;;;;1.83;1.15;;;25.40;51.60;;;;;;6243125;23;20171;-85
2023/09/27 07:48:21;;;;;;;1.27;0.90;;;25.50;51.40;;;;;;6245168;23;20194;-83
2023/09/27 07:50:49;;;;;;;2.70;1.67;;;25.60;51.50;;;;;;6243017;23;20162;-86
2023/09/27 07:53:23;;;;;;;1.13;1.02;;;25.60;51.50;;;;;;6245936;23;20221;-84
2023/09/27 07:55:53;;;;;;;0.88;0.80;;;25.70;51.60;;;;;;6244067;23;20245;-83
2023/09/27 07:58:24;;;;;;;1.10;0.85;;;25.80;51.70;;;;;;6247013;23;20175;-82
2023/09/27 08:00:53;;;;;;;0.57;0.57;;;25.80;51.40;;;;;;6243861;23;20548;-83
2023/09/27 08:03:22;;;;;;;0.52;0.50;;;26.00;51.50;;;;;;6244521;23;20170;-83
2023/09/27 08:05:58;;;;;;;0.57;0.55;;;26.00;50.90;;;;;;6239057;23;20213;-84
2023/09/27 08:08:28;;;;;;;5.30;1.35;;;26.00;50.30;;;;;;6243864;23;20197;-83
2023/09/27 08:10:57;;;;;;;0.63;0.40;;;26.10;50.50;;;;;;6243587;23;20592;-84
2023/09/27 08:13:28;;;;;;;1.10;0.77;;;26.10;49.20;;;;;;6245944;23;20173;-86
2023/09/27 08:15:59;;;;;;;0.68;0.57;;;26.20;49.30;;;;;;6243016;23;20373;-88
2023/09/27 08:18:42;;;;;;;1.13;0.80;;;26.30;49.60;;;;;;6242844;23;20170;-88
2023/09/27 08:21:11;;;;;;;2.50;0.80;;;26.40;49.50;;;;;;6243210;23;20605;-81
2023/09/27 08:23:42;;;;;;;1.85;0.85;;;26.40;49.00;;;;;;6243630;23;20757;-80
2023/09/27 08:26:12;;;;;;;4.22;0.65;;;26.50;49.30;;;;;;6240974;23;20155;-80
2023/09/27 08:28:41;;;;;;;7.45;0.82;;;26.50;49.20;;;;;;6241162;23;20260;-81
2023/09/27 08:31:11;;;;;;;0.70;0.60;;;26.60;49.10;;;;;;6242673;23;20170;-81
2023/09/27 08:33:41;;;;;;;0.57;0.57;;;26.70;49.20;;;;;;6244017;23;20202;-80
2023/09/27 08:36:10;;;;;;;0.73;0.73;;;26.70;49.10;;;;;;6243127;23;20160;-83
2023/09/27 08:38:41;;;;;;;0.85;0.82;;;26.80;49.00;;;;;;6242689;23;20240;-81
2023/09/27 08:41:11;;;;;;;0.30;0.30;;;26.80;48.70;;;;;;6242365;23;20162;-82
2023/09/27 08:43:40;;;;;;;0.20;0.20;;;26.90;48.40;;;;;;6243486;23;20169;-80
2023/09/27 08:46:10;;;;;;;0.65;0.47;;;26.90;48.40;;;;;;6237358;23;20409;-83
2023/09/27 08:48:41;;;;;;;3.60;0.70;;;27.00;48.10;;;;;;6241795;23;20198;-82
2023/09/27 08:51:13;;;;;;;0.88;0.80;;;27.10;48.40;;;;;;6241116;23;20169;-82
2023/09/27 08:53:43;;;;;;;1.05;0.95;;;27.10;48.20;;;;;;6242749;23;20163;-84
2023/09/27 08:56:16;;;;;;;2.42;0.95;;;27.20;47.90;;;;;;6241968;23;20158;-80
2023/09/27 08:58:50;;;;;;;0.73;0.68;;;27.20;48.10;;;;;;6242556;23;20237;-85
2023/09/27 09:01:19;;;;;;;0.52;0.47;;;27.30;48.40;;;;;;6240555;23;20479;-82
2023/09/27 09:03:48;;;;;;;1.10;1.00;;;27.30;48.10;;;;;;6240542;23;20166;-82
2023/09/27 09:06:18;;;;;;;0.63;0.60;;;27.40;47.80;;;;;;6241163;23;20170;-83
2023/09/27 09:08:48;;;;;;;0.63;0.63;;;27.40;47.60;;;;;;6242934;23;20194;-82
2023/09/27 09:11:17;;;;;;;0.30;0.30;;;27.50;47.90;;;;;;6240490;23;20483;-85
2023/09/27 09:13:57;;;;;;;0.32;0.32;;;27.50;47.90;;;;;;6238597;23;20253;-83
2023/09/27 09:16:25;;;;;;;0.63;0.63;;;27.50;47.70;;;;;;6240575;23;20166;-84
2023/09/27 09:18:55;;;;;;;2.13;0.70;;;27.50;47.90;;;;;;6241594;23;20166;-83
2023/09/27 09:21:25;;;;;;;0.75;0.75;;;27.60;47.40;;;;;;6239985;23;20172;-82
2023/09/27 09:23:55;;;;;;;0.57;0.57;;;27.60;47.20;;;;;;6241014;23;20180;-82
2023/09/27 09:26:29;;;;;;;0.43;0.32;;;27.60;47.40;;;;;;6241078;23;20155;-85
2023/09/27 09:29:00;;;;;;;0.25;0.25;;;27.60;47.10;;;;;;6242681;23;20255;-82
2023/09/27 09:31:33;;;;;;;2.10;1.17;;;27.70;47.00;;;;;;6240624;23;20166;-80
2023/09/27 09:34:09;;;;;;;0.22;0.22;;;27.70;47.20;;;;;;6239488;23;20162;-83
2023/09/27 09:36:40;;;;;;;0.55;0.43;;;27.70;46.60;;;;;;6241735;23;20155;-86
2023/09/27 09:39:13;;;;;;;2.65;2.25;;;27.70;46.80;;;;;;6241374;23;20627;-85
2023/09/27 09:41:46;;;;;;;2.38;1.70;;;27.70;46.70;;;;;;6241936;23;20674;-87
2023/09/27 09:44:19;;;;;;;3.47;1.52;;;27.80;46.90;;;;;;6244538;23;20220;-84
2023/09/27 09:46:48;;;;;;;0.40;0.40;;;27.80;47.20;;;;;;6244973;23;20161;-84
2023/09/27 09:49:18;;;;;;;2.20;1.50;;;27.80;47.00;;;;;;6244725;23;20316;-87
2023/09/27 09:51:48;;;;;;;0.65;0.45;;;27.90;47.00;;;;;;6243580;23;20174;-85
2023/09/27 09:54:37;;;;;;;0.50;0.50;;;27.90;46.50;;;;;;6243585;23;20163;-81
2023/09/27 09:57:08;;;;;;;0.80;0.77;;;27.90;46.50;;;;;;6245743;23;20166;-83
2023/09/27 09:59:57;;;;;;;1.02;0.77;;;27.90;46.50;;;;;;6240300;23;20177;-82
2023/09/27 10:02:33;;;;;;;1.25;0.95;;;28.00;46.30;;;;;;6242143;23;20178;-82
2023/09/27 10:05:06;;;;;;;0.85;0.70;;;28.00;46.60;;;;;;6242506;23;20467;-86
2023/09/27 10:07:35;;;;;;;2.08;0.90;;;28.10;46.60;;;;;;6244359;23;20201;-84
2023/09/27 10:10:08;;;;;;;0.45;0.45;;;28.10;45.90;;;;;;6245329;23;20521;-84
2023/09/27 10:12:39;;;;;;;0.60;0.60;;;28.10;46.30;;;;;;6242755;23;20620;-81
2023/09/27 10:15:09;;;;;;;0.20;0.20;;;28.20;46.50;;;;;;6244096;23;20254;-84
2023/09/27 10:17:37;;;;;;;0.30;0.30;;;28.20;46.00;;;;;;6242215;23;20167;-82
2023/09/27 10:20:13;;;;;;;0.63;0.63;;;28.20;45.60;;;;;;6243985;23;20180;-82
2023/09/27 10:22:43;;;;;;;0.82;0.80;;;28.30;45.80;;;;;;6244480;23;20495;-83
2023/09/27 10:25:35;;;;;;;0.40;0.40;;;28.30;45.80;;;;;;6241593;23;20296;-82
2023/09/27 10:28:12;;;;;;;0.43;0.43;;;28.30;45.10;;;;;;6245512;23;20197;-85
2023/09/27 10:31:06;;;;;;;0.40;0.40;;;28.30;45.00;;;;;;6232719;23;20200;-83
2023/09/27 10:33:38;;;;;;;0.88;0.57;;;28.30;45.00;;;;;;6243473;23;20166;-81
2023/09/27 10:36:30;;;;;;;0.43;0.43;;;28.30;45.10;;;;;;6244571;23;20198;-82
2023/09/27 10:39:05;;;;;;;0.75;0.40;;;28.40;45.30;;;;;;6242932;23;20167;-82
2023/09/27 10:41:51;;;;;;;0.50;0.45;;;28.40;45.40;;;;;;6245399;23;20161;-82
2023/09/27 10:44:30;;;;;;;0.30;0.30;;;28.40;45.30;;;;;;6244578;23;20936;-82
2023/09/27 10:47:00;;;;;;;0.85;0.50;;;28.40;44.80;;;;;;6244761;23;20158;-84
2023/09/27 10:49:37;;;;;;;8.77;2.45;;;28.50;44.30;;;;;;6244847;23;20582;-87
2023/09/27 10:52:16;;;;;;;0.25;0.25;;;28.50;44.10;;;;;;6242357;23;20173;-84
2023/09/27 10:54:45;;;;;;;0.50;0.50;;;28.50;44.00;;;;;;6243674;23;20483;-82
2023/09/27 10:57:16;;;;;;;0.40;0.40;;;28.50;43.30;;;;;;6243641;23;20616;-84
2023/09/27 10:59:50;;;;;;;0.52;0.50;;;28.40;43.90;;;;;;6243839;23;20155;-86
2023/09/27 11:02:28;;;;;;;0.77;0.52;;;28.50;43.90;;;;;;6245292;23;20149;-84
2023/09/27 11:04:57;;;;;;;0.40;0.40;;;28.60;44.30;;;;;;6244708;23;20165;-82
2023/09/27 11:07:43;;;;;;;0.20;0.20;;;28.60;44.50;;;;;;6242867;23;20583;-85
2023/09/27 11:10:11;;;;;;;0.68;0.68;;;28.70;44.50;;;;;;6243672;23;20204;-85
2023/09/27 11:12:41;;;;;;;0.50;0.50;;;28.70;44.00;;;;;;6242027;23;20169;-83
2023/09/27 11:15:11;;;;;;;1.45;0.88;;;28.70;44.10;;;;;;6243909;23;20473;-84
2023/09/27 11:17:40;;;;;;;2.08;1.27;;;28.80;44.20;;;;;;6239624;23;20163;-84
2023/09/27 11:20:15;;;;;;;0.73;0.25;;;28.80;44.50;;;;;;6242590;23;20175;-85
2023/09/27 11:22:46;;;;;;;0.82;0.75;;;28.90;44.60;;;;;;6240986;23;20160;-84
2023/09/27 11:25:29;;;;;;;0.30;0.30;;;28.90;44.40;;;;;;6240858;23;20171;-84
2023/09/27 11:28:00;;;;;;;3.47;1.65;;;29.00;43.30;;;;;;6240744;23;20194;-83
2023/09/27 11:30:30;;;;;;;0.75;0.65;;;29.00;43.40;;;;;;6241907;23;20209;-86
2023/09/27 11:33:01;;;;;;;0.52;0.52;;;29.00;43.20;;;;;;6239939;23;20186;-83
2023/09/27 11:35:31;;;;;;;0.17;0.17;;;29.00;42.30;;;;;;6240914;23;20159;-82
2023/09/27 11:38:07;;;;;;;0.65;0.50;;;29.00;42.20;;;;;;6242650;23;20170;-82
2023/09/27 11:40:39;;;;;;;0.50;0.40;;;29.10;42.40;;;;;;6230704;23;20175;-82
2023/09/27 11:43:09;;;;;;;0.43;0.43;;;29.10;42.10;;;;;;6242484;23;20620;-84
2023/09/27 11:45:44;;;;;;;1.20;0.75;;;29.10;41.50;;;;;;6242271;23;20166;-84
2023/09/27 11:48:13;;;;;;;0.60;0.50;;;29.10;41.90;;;;;;6241891;23;20620;-83
2023/09/27 11:50:44;;;;;;;4.70;1.52;;;29.20;41.30;;;;;;6244244;23;20277;-82
2023/09/27 11:53:14;;;;;;;0.95;0.93;;;29.20;40.70;;;;;;6244378;23;20166;-84
2023/09/27 11:55:43;;;;;;;0.93;0.40;;;29.20;41.00;;;;;;6243685;23;20181;-83
2023/09/27 11:58:13;;;;;;;2.13;0.38;;;29.20;40.60;;;;;;6242598;23;20166;-83
2023/09/27 12:00:41;;;;;;;0.40;0.40;;;29.20;40.50;;;;;;6216641;23;20163;-86
2023/09/27 12:03:10;;;;;;;1.45;1.05;;;29.20;40.30;;;;;;6243633;23;20250;-82
2023/09/27 12:05:39;;;;;;;0.47;0.47;;;29.20;40.10;;;;;;6243978;23;20182;-82
2023/09/27 12:08:11;;;;;;;0.35;0.30;;;29.10;40.60;;;;;;6242302;23;20155;-82
2023/09/27 12:10:39;;;;;;;0.75;0.75;;;29.20;41.00;;;;;;6242277;23;20277;-80
2023/09/27 12:13:08;;;;;;;0.50;0.50;;;29.20;40.90;;;;;;6238716;23;20311;-87
2023/09/27 12:15:38;;;;;;;0.80;0.45;;;29.30;41.30;;;;;;6241354;23;20600;-81
2023/09/27 12:18:09;;;;;;;2.70;1.35;;;29.30;40.30;;;;;;6242197;23;20249;-84
2023/09/27 12:20:39;;;;;;;2.58;0.57;;;29.30;40.60;;;;;;6240946;23;20245;-83
2023/09/27 12:23:11;;;;;;;0.30;0.30;;;29.30;40.70;;;;;;6240498;23;20651;-81
2023/09/27 12:25:39;;;;;;;0.50;0.50;;;29.30;40.90;;;;;;6241834;23;20687;-81
2023/09/27 12:28:08;;;;;;;0.30;0.30;;;29.30;41.00;;;;;;6240423;23;20189;-82
2023/09/27 12:30:38;;;;;;;0.63;0.60;;;29.30;41.00;;;;;;6239221;23;20204;-82
2023/09/27 12:33:09;;;;;;;0.52;0.52;;;29.30;40.70;;;;;;6240697;23;20159;-83
2023/09/27 12:35:38;;;;;;;0.30;0.30;;;29.30;40.50;;;;;;6229591;23;20189;-84
2023/09/27 12:38:07;;;;;;;0.68;0.68;;;29.30;40.40;;;;;;6241439;23;20313;-81
2023/09/27 12:40:36;;;;;;;0.50;0.50;;;29.30;40.70;;;;;;6243119;23;20174;-82
2023/09/27 12:43:05;;;;;;;0.30;0.30;;;29.20;41.20;;;;;;6241871;23;20257;-84
2023/09/27 12:45:40;;;;;;;0.57;0.50;;;29.30;41.30;;;;;;6239979;23;20151;-82
2023/09/27 12:48:09;;;;;;;0.30;0.30;;;29.20;41.20;;;;;;6244313;23;20170;-84
2023/09/27 12:50:41;;;;;;;0.20;0.20;;;29.20;41.40;;;;;;6243542;23;20190;-82
2023/09/27 12:53:10;;;;;;;0.65;0.35;;;29.20;41.70;;;;;;6242923;23;20416;-83
2023/09/27 12:55:42;;;;;;;0.57;0.40;;;29.20;41.40;;;;;;6239858;23;20170;-84
2023/09/27 12:58:11;;;;;;;0.40;0.40;;;29.20;41.30;;;;;;6239613;23;20198;-82
2023/09/27 13:00:42;;;;;;;0.30;0.30;;;29.20;41.10;;;;;;6240667;23;20236;-82
2023/09/27 13:03:11;;;;;;;2.28;0.82;;;29.20;40.90;;;;;;6241909;23;20201;-83
2023/09/27 13:05:40;;;;;;;1.00;0.40;;;29.20;40.60;;;;;;6241317;23;20217;-82
2023/09/27 13:08:09;;;;;;;1.15;0.63;;;29.20;40.90;;;;;;6241488;23;20663;-82
2023/09/27 13:10:38;;;;;;;0.50;0.50;;;29.20;40.50;;;;;;6241777;23;20194;-82
2023/09/27 13:13:09;;;;;;;0.95;0.57;;;29.20;40.40;;;;;;6241657;23;20171;-83
2023/09/27 13:15:38;;;;;;;0.80;0.60;;;29.20;40.10;;;;;;6241456;23;21126;-83
2023/09/27 13:18:08;;;;;;;0.30;0.30;;;29.30;40.60;;;;;;6242765;23;20163;-84